sensor_id;sensor_type;location;lat;lon;timestamp;temperature;humidity
62339;DHT22;48368;53.406;6.214;2023-06-22T00:00:53;16.20;99.90
62339;DHT22;48368;53.406;6.214;2023-06-22T00:03:20;16.20;99.90
62339;DHT22;48368;53.406;6.214;2023-06-22T00:05:46;16.10;99.90
62339;DHT22;48368;53.406;6.214;2023-06-22T00:08:12;16.10;99.90
62339;DHT22;48368;53.406;6.214;2023-06-22T00:10:38;16.10;99.90
62339;DHT22;48368;53.406;6.214;2023-06-22T00:13:04;16.00;99.90
62339;DHT22;48368;53.406;6.214;2023-06-22T00:15:30;15.90;99.90
62339;DHT22;48368;53.406;6.214;2023-06-22T00:17:56;15.90;99.90
62339;DHT22;48368;53.406;6.214;2023-06-22T00:20:23;15.90;99.90
62339;DHT22;48368;53.406;6.214;2023-06-22T00:22:48;15.80;99.90
62339;DHT22;48368;53.406;6.214;2023-06-22T00:25:14;15.70;99.90
62339;DHT22;48368;53.406;6.214;2023-06-22T00:27:40;15.70;99.90
62339;DHT22;48368;53.406;6.214;2023-06-22T00:30:06;15.70;99.90
62339;DHT22;48368;53.406;6.214;2023-06-22T00:32:32;15.60;99.90
62339;DHT22;48368;53.406;6.214;2023-06-22T00:35:00;15.60;99.90
62339;DHT22;48368;53.406;6.214;2023-06-22T00:37:26;15.50;99.90
62339;DHT22;48368;53.406;6.214;2023-06-22T00:39:55;15.50;99.90
62339;DHT22;48368;53.406;6.214;2023-06-22T00:42:21;15.50;99.90
62339;DHT22;48368;53.406;6.214;2023-06-22T00:44:46;15.50;99.90
62339;DHT22;48368;53.406;6.214;2023-06-22T00:47:15;15.50;99.90
62339;DHT22;48368;53.406;6.214;2023-06-22T00:49:41;15.50;99.90
62339;DHT22;48368;53.406;6.214;2023-06-22T00:52:08;15.40;99.90
62339;DHT22;48368;53.406;6.214;2023-06-22T00:54:37;15.40;99.90
62339;DHT22;48368;53.406;6.214;2023-06-22T00:57:04;15.30;99.90
62339;DHT22;48368;53.406;6.214;2023-06-22T00:59:30;15.30;99.90
62339;DHT22;48368;53.406;6.214;2023-06-22T01:01:58;15.30;99.90
62339;DHT22;48368;53.406;6.214;2023-06-22T01:04:34;15.30;99.90
62339;DHT22;48368;53.406;6.214;2023-06-22T01:09:59;15.20;99.90
62339;DHT22;48368;53.406;6.214;2023-06-22T01:12:31;15.20;99.90
62339;DHT22;48368;53.406;6.214;2023-06-22T01:15:09;15.20;99.90
62339;DHT22;48368;53.406;6.214;2023-06-22T01:17:36;15.20;99.90
62339;DHT22;48368;53.406;6.214;2023-06-22T01:20:04;15.20;99.90
62339;DHT22;48368;53.406;6.214;2023-06-22T01:22:33;15.10;99.90
62339;DHT22;48368;53.406;6.214;2023-06-22T01:25:16;15.10;99.90
62339;DHT22;48368;53.406;6.214;2023-06-22T01:27:56;15.10;99.90
62339;DHT22;48368;53.406;6.214;2023-06-22T01:30:27;15.10;99.90
62339;DHT22;48368;53.406;6.214;2023-06-22T01:32:56;15.10;99.90
62339;DHT22;48368;53.406;6.214;2023-06-22T01:35:23;15.10;99.90
62339;DHT22;48368;53.406;6.214;2023-06-22T01:37:50;15.10;99.90
62339;DHT22;48368;53.406;6.214;2023-06-22T01:40:16;15.00;99.90
62339;DHT22;48368;53.406;6.214;2023-06-22T01:42:43;15.00;99.90
62339;DHT22;48368;53.406;6.214;2023-06-22T01:45:09;15.00;99.90
62339;DHT22;48368;53.406;6.214;2023-06-22T01:47:36;15.00;99.90
62339;DHT22;48368;53.406;6.214;2023-06-22T01:50:02;15.00;99.90
62339;DHT22;48368;53.406;6.214;2023-06-22T01:52:28;15.00;99.90
62339;DHT22;48368;53.406;6.214;2023-06-22T01:54:54;15.00;99.90
62339;DHT22;48368;53.406;6.214;2023-06-22T01:57:19;14.90;99.90
62339;DHT22;48368;53.406;6.214;2023-06-22T02:00:00;14.90;99.90
62339;DHT22;48368;53.406;6.214;2023-06-22T02:02:31;14.90;99.90
62339;DHT22;48368;53.406;6.214;2023-06-22T02:05:09;14.90;99.90
62339;DHT22;48368;53.406;6.214;2023-06-22T02:07:54;14.90;99.90
62339;DHT22;48368;53.406;6.214;2023-06-22T02:10:23;14.90;99.90
62339;DHT22;48368;53.406;6.214;2023-06-22T02:12:50;14.90;99.90
62339;DHT22;48368;53.406;6.214;2023-06-22T02:15:17;15.00;99.90
62339;DHT22;48368;53.406;6.214;2023-06-22T02:17:43;14.90;99.90
62339;DHT22;48368;53.406;6.214;2023-06-22T02:20:15;14.90;99.90
62339;DHT22;48368;53.406;6.214;2023-06-22T02:22:41;14.90;99.90
62339;DHT22;48368;53.406;6.214;2023-06-22T02:25:07;14.90;99.90
62339;DHT22;48368;53.406;6.214;2023-06-22T02:27:32;14.80;99.90
62339;DHT22;48368;53.406;6.214;2023-06-22T02:29:58;14.80;99.90
62339;DHT22;48368;53.406;6.214;2023-06-22T02:32:24;14.80;99.90
62339;DHT22;48368;53.406;6.214;2023-06-22T02:34:50;14.80;99.90
62339;DHT22;48368;53.406;6.214;2023-06-22T02:37:17;14.70;99.90
62339;DHT22;48368;53.406;6.214;2023-06-22T02:39:43;14.70;99.90
62339;DHT22;48368;53.406;6.214;2023-06-22T02:42:09;14.70;99.90
62339;DHT22;48368;53.406;6.214;2023-06-22T02:44:36;14.70;99.90
62339;DHT22;48368;53.406;6.214;2023-06-22T02:47:02;14.70;99.90
62339;DHT22;48368;53.406;6.214;2023-06-22T02:49:28;14.70;99.90
62339;DHT22;48368;53.406;6.214;2023-06-22T02:51:53;14.60;99.90
62339;DHT22;48368;53.406;6.214;2023-06-22T02:54:20;14.60;99.90
62339;DHT22;48368;53.406;6.214;2023-06-22T02:56:46;14.60;99.90
62339;DHT22;48368;53.406;6.214;2023-06-22T02:59:11;14.60;99.90
62339;DHT22;48368;53.406;6.214;2023-06-22T03:01:37;14.60;99.90
62339;DHT22;48368;53.406;6.214;2023-06-22T03:04:06;14.60;99.90
62339;DHT22;48368;53.406;6.214;2023-06-22T03:06:32;14.60;99.90
62339;DHT22;48368;53.406;6.214;2023-06-22T03:09:03;14.60;99.90
62339;DHT22;48368;53.406;6.214;2023-06-22T03:11:30;14.50;99.90
62339;DHT22;48368;53.406;6.214;2023-06-22T03:13:56;14.50;99.90
62339;DHT22;48368;53.406;6.214;2023-06-22T03:16:21;14.60;99.90
62339;DHT22;48368;53.406;6.214;2023-06-22T03:18:47;14.50;99.90
62339;DHT22;48368;53.406;6.214;2023-06-22T03:21:13;14.50;99.90
62339;DHT22;48368;53.406;6.214;2023-06-22T03:23:43;14.50;99.90
62339;DHT22;48368;53.406;6.214;2023-06-22T03:26:09;14.50;99.90
62339;DHT22;48368;53.406;6.214;2023-06-22T03:28:36;14.50;99.90
62339;DHT22;48368;53.406;6.214;2023-06-22T03:31:03;14.50;99.90
62339;DHT22;48368;53.406;6.214;2023-06-22T03:33:32;14.50;99.90
62339;DHT22;48368;53.406;6.214;2023-06-22T03:35:58;14.50;99.90
62339;DHT22;48368;53.406;6.214;2023-06-22T03:38:24;14.50;99.90
62339;DHT22;48368;53.406;6.214;2023-06-22T03:40:50;14.50;99.90
62339;DHT22;48368;53.406;6.214;2023-06-22T03:43:16;14.60;99.90
62339;DHT22;48368;53.406;6.214;2023-06-22T03:45:42;14.60;99.90
62339;DHT22;48368;53.406;6.214;2023-06-22T03:48:07;14.60;99.90
62339;DHT22;48368;53.406;6.214;2023-06-22T03:50:33;14.60;99.90
62339;DHT22;48368;53.406;6.214;2023-06-22T03:52:58;14.60;99.90
62339;DHT22;48368;53.406;6.214;2023-06-22T03:55:24;14.70;99.90
62339;DHT22;48368;53.406;6.214;2023-06-22T03:57:50;14.70;99.90
62339;DHT22;48368;53.406;6.214;2023-06-22T04:00:15;14.80;99.90
62339;DHT22;48368;53.406;6.214;2023-06-22T04:02:41;14.80;99.90
62339;DHT22;48368;53.406;6.214;2023-06-22T04:05:09;14.80;99.90
62339;DHT22;48368;53.406;6.214;2023-06-22T04:07:34;14.90;99.90
62339;DHT22;48368;53.406;6.214;2023-06-22T04:10:03;14.90;99.90
62339;DHT22;48368;53.406;6.214;2023-06-22T04:12:29;15.10;99.90
62339;DHT22;48368;53.406;6.214;2023-06-22T04:14:54;15.20;99.90
62339;DHT22;48368;53.406;6.214;2023-06-22T04:17:20;15.30;99.90
62339;DHT22;48368;53.406;6.214;2023-06-22T04:19:46;15.30;99.90
62339;DHT22;48368;53.406;6.214;2023-06-22T04:22:11;15.30;99.90
62339;DHT22;48368;53.406;6.214;2023-06-22T04:24:37;15.30;99.90
62339;DHT22;48368;53.406;6.214;2023-06-22T04:27:03;15.40;99.90
62339;DHT22;48368;53.406;6.214;2023-06-22T04:29:30;15.40;99.90
62339;DHT22;48368;53.406;6.214;2023-06-22T04:31:59;15.40;99.90
62339;DHT22;48368;53.406;6.214;2023-06-22T04:34:28;15.60;99.90
62339;DHT22;48368;53.406;6.214;2023-06-22T04:36:55;15.60;99.90
62339;DHT22;48368;53.406;6.214;2023-06-22T04:39:22;15.80;99.90
62339;DHT22;48368;53.406;6.214;2023-06-22T04:41:47;15.90;99.90
62339;DHT22;48368;53.406;6.214;2023-06-22T04:44:17;16.00;99.90
62339;DHT22;48368;53.406;6.214;2023-06-22T04:47:00;16.10;99.90
62339;DHT22;48368;53.406;6.214;2023-06-22T04:49:28;16.30;99.90
62339;DHT22;48368;53.406;6.214;2023-06-22T04:52:05;16.40;99.90
62339;DHT22;48368;53.406;6.214;2023-06-22T04:54:31;16.50;99.90
62339;DHT22;48368;53.406;6.214;2023-06-22T04:57:00;16.50;99.90
62339;DHT22;48368;53.406;6.214;2023-06-22T04:59:30;16.70;99.90
62339;DHT22;48368;53.406;6.214;2023-06-22T05:02:00;16.80;99.90
62339;DHT22;48368;53.406;6.214;2023-06-22T05:04:28;17.10;99.90
62339;DHT22;48368;53.406;6.214;2023-06-22T05:06:57;17.30;99.90
62339;DHT22;48368;53.406;6.214;2023-06-22T05:09:23;17.30;99.90
62339;DHT22;48368;53.406;6.214;2023-06-22T05:11:50;17.50;99.90
62339;DHT22;48368;53.406;6.214;2023-06-22T05:14:16;17.70;99.90
62339;DHT22;48368;53.406;6.214;2023-06-22T05:16:42;17.80;99.90
62339;DHT22;48368;53.406;6.214;2023-06-22T05:19:08;17.90;99.90
62339;DHT22;48368;53.406;6.214;2023-06-22T05:21:34;18.00;99.90
62339;DHT22;48368;53.406;6.214;2023-06-22T05:24:00;18.10;99.90
62339;DHT22;48368;53.406;6.214;2023-06-22T05:26:28;18.20;99.90
62339;DHT22;48368;53.406;6.214;2023-06-22T05:28:54;18.40;99.90
62339;DHT22;48368;53.406;6.214;2023-06-22T05:31:20;18.60;99.90
62339;DHT22;48368;53.406;6.214;2023-06-22T05:33:47;18.80;99.90
62339;DHT22;48368;53.406;6.214;2023-06-22T05:36:13;18.90;99.90
62339;DHT22;48368;53.406;6.214;2023-06-22T05:38:40;19.00;99.90
62339;DHT22;48368;53.406;6.214;2023-06-22T05:41:07;19.10;99.90
62339;DHT22;48368;53.406;6.214;2023-06-22T05:43:33;19.30;99.90
62339;DHT22;48368;53.406;6.214;2023-06-22T05:46:00;19.30;99.90
62339;DHT22;48368;53.406;6.214;2023-06-22T05:48:26;19.40;99.90
62339;DHT22;48368;53.406;6.214;2023-06-22T05:50:52;19.60;99.90
62339;DHT22;48368;53.406;6.214;2023-06-22T05:53:18;19.60;99.90
62339;DHT22;48368;53.406;6.214;2023-06-22T05:55:43;19.70;99.90
62339;DHT22;48368;53.406;6.214;2023-06-22T05:58:09;19.80;99.90
62339;DHT22;48368;53.406;6.214;2023-06-22T06:00:35;20.10;99.90
62339;DHT22;48368;53.406;6.214;2023-06-22T06:03:01;20.00;99.90
62339;DHT22;48368;53.406;6.214;2023-06-22T06:05:33;20.20;99.90
62339;DHT22;48368;53.406;6.214;2023-06-22T06:08:03;20.30;99.90
62339;DHT22;48368;53.406;6.214;2023-06-22T06:10:31;20.30;99.90
62339;DHT22;48368;53.406;6.214;2023-06-22T06:12:56;20.20;99.90
62339;DHT22;48368;53.406;6.214;2023-06-22T06:15:22;20.30;99.90
62339;DHT22;48368;53.406;6.214;2023-06-22T06:17:50;20.30;99.90
62339;DHT22;48368;53.406;6.214;2023-06-22T06:20:19;20.40;99.90
62339;DHT22;48368;53.406;6.214;2023-06-22T06:22:45;20.30;99.90
62339;DHT22;48368;53.406;6.214;2023-06-22T06:25:12;20.40;99.90
62339;DHT22;48368;53.406;6.214;2023-06-22T06:27:45;20.50;99.90
62339;DHT22;48368;53.406;6.214;2023-06-22T06:30:12;20.60;99.90
62339;DHT22;48368;53.406;6.214;2023-06-22T06:32:38;20.50;99.90
62339;DHT22;48368;53.406;6.214;2023-06-22T06:35:06;20.40;99.90
62339;DHT22;48368;53.406;6.214;2023-06-22T06:37:36;20.60;99.90
62339;DHT22;48368;53.406;6.214;2023-06-22T06:40:04;20.60;99.90
62339;DHT22;48368;53.406;6.214;2023-06-22T06:42:31;20.60;99.90
62339;DHT22;48368;53.406;6.214;2023-06-22T06:44:56;20.60;99.90
62339;DHT22;48368;53.406;6.214;2023-06-22T06:47:22;20.70;99.90
62339;DHT22;48368;53.406;6.214;2023-06-22T06:49:48;20.60;99.90
62339;DHT22;48368;53.406;6.214;2023-06-22T06:52:13;20.60;99.90
62339;DHT22;48368;53.406;6.214;2023-06-22T06:54:39;20.80;99.90
62339;DHT22;48368;53.406;6.214;2023-06-22T06:57:04;20.70;99.90
62339;DHT22;48368;53.406;6.214;2023-06-22T06:59:30;20.90;99.90
62339;DHT22;48368;53.406;6.214;2023-06-22T07:01:56;21.00;99.90
62339;DHT22;48368;53.406;6.214;2023-06-22T07:04:21;21.00;99.90
62339;DHT22;48368;53.406;6.214;2023-06-22T07:06:47;21.10;99.90
62339;DHT22;48368;53.406;6.214;2023-06-22T07:09:12;21.20;99.90
62339;DHT22;48368;53.406;6.214;2023-06-22T07:11:38;21.10;99.90
62339;DHT22;48368;53.406;6.214;2023-06-22T07:14:04;21.40;99.90
62339;DHT22;48368;53.406;6.214;2023-06-22T07:16:30;21.50;99.90
62339;DHT22;48368;53.406;6.214;2023-06-22T07:18:57;21.60;99.90
62339;DHT22;48368;53.406;6.214;2023-06-22T07:21:22;21.60;99.90
62339;DHT22;48368;53.406;6.214;2023-06-22T07:23:48;21.70;99.90
62339;DHT22;48368;53.406;6.214;2023-06-22T07:26:13;21.80;99.90
62339;DHT22;48368;53.406;6.214;2023-06-22T07:28:39;21.80;99.90
62339;DHT22;48368;53.406;6.214;2023-06-22T07:31:06;21.90;99.90
62339;DHT22;48368;53.406;6.214;2023-06-22T07:33:31;21.90;99.90
62339;DHT22;48368;53.406;6.214;2023-06-22T07:35:57;22.10;99.90
62339;DHT22;48368;53.406;6.214;2023-06-22T07:38:23;22.20;99.90
62339;DHT22;48368;53.406;6.214;2023-06-22T07:40:49;22.40;99.90
62339;DHT22;48368;53.406;6.214;2023-06-22T07:43:16;22.30;99.90
62339;DHT22;48368;53.406;6.214;2023-06-22T07:45:48;22.50;99.90
62339;DHT22;48368;53.406;6.214;2023-06-22T07:48:20;22.70;99.90
62339;DHT22;48368;53.406;6.214;2023-06-22T07:50:46;22.70;99.90
62339;DHT22;48368;53.406;6.214;2023-06-22T07:53:12;22.80;99.90
62339;DHT22;48368;53.406;6.214;2023-06-22T07:55:37;22.90;99.90
62339;DHT22;48368;53.406;6.214;2023-06-22T07:58:03;22.80;99.90
62339;DHT22;48368;53.406;6.214;2023-06-22T08:00:28;22.70;99.90
62339;DHT22;48368;53.406;6.214;2023-06-22T08:02:54;22.80;99.90
62339;DHT22;48368;53.406;6.214;2023-06-22T08:05:20;22.80;99.90
62339;DHT22;48368;53.406;6.214;2023-06-22T08:07:45;22.90;99.90
62339;DHT22;48368;53.406;6.214;2023-06-22T08:10:12;23.10;99.90
62339;DHT22;48368;53.406;6.214;2023-06-22T08:12:41;23.00;99.90
62339;DHT22;48368;53.406;6.214;2023-06-22T08:15:07;23.10;99.90
62339;DHT22;48368;53.406;6.214;2023-06-22T08:17:33;23.00;99.90
62339;DHT22;48368;53.406;6.214;2023-06-22T08:19:59;23.10;99.90
62339;DHT22;48368;53.406;6.214;2023-06-22T08:22:25;23.20;99.90
62339;DHT22;48368;53.406;6.214;2023-06-22T08:24:50;23.10;99.90
62339;DHT22;48368;53.406;6.214;2023-06-22T08:27:16;23.10;99.90
62339;DHT22;48368;53.406;6.214;2023-06-22T08:29:44;23.20;99.90
62339;DHT22;48368;53.406;6.214;2023-06-22T08:32:11;23.10;99.90
62339;DHT22;48368;53.406;6.214;2023-06-22T08:34:37;23.20;99.90
62339;DHT22;48368;53.406;6.214;2023-06-22T08:37:08;23.40;99.90
62339;DHT22;48368;53.406;6.214;2023-06-22T08:39:35;23.10;99.90
62339;DHT22;48368;53.406;6.214;2023-06-22T08:42:00;22.90;99.90
62339;DHT22;48368;53.406;6.214;2023-06-22T08:44:26;23.10;99.90
62339;DHT22;48368;53.406;6.214;2023-06-22T08:46:52;23.20;99.90
62339;DHT22;48368;53.406;6.214;2023-06-22T08:49:17;23.40;99.90
62339;DHT22;48368;53.406;6.214;2023-06-22T08:51:43;23.40;99.90
62339;DHT22;48368;53.406;6.214;2023-06-22T08:54:11;23.20;99.90
62339;DHT22;48368;53.406;6.214;2023-06-22T08:56:36;23.40;99.90
62339;DHT22;48368;53.406;6.214;2023-06-22T08:59:02;23.40;99.90
62339;DHT22;48368;53.406;6.214;2023-06-22T09:01:28;23.70;99.90
62339;DHT22;48368;53.406;6.214;2023-06-22T09:03:53;23.90;99.90
62339;DHT22;48368;53.406;6.214;2023-06-22T09:06:23;23.80;99.90
62339;DHT22;48368;53.406;6.214;2023-06-22T09:08:49;23.60;99.90
62339;DHT22;48368;53.406;6.214;2023-06-22T09:11:15;23.60;99.90
62339;DHT22;48368;53.406;6.214;2023-06-22T09:13:40;23.70;99.90
62339;DHT22;48368;53.406;6.214;2023-06-22T09:16:06;23.80;99.90
62339;DHT22;48368;53.406;6.214;2023-06-22T09:18:33;23.80;99.90
62339;DHT22;48368;53.406;6.214;2023-06-22T09:20:59;23.60;99.90
62339;DHT22;48368;53.406;6.214;2023-06-22T09:23:25;23.60;99.90
62339;DHT22;48368;53.406;6.214;2023-06-22T09:25:50;23.70;99.90
62339;DHT22;48368;53.406;6.214;2023-06-22T09:28:16;23.90;99.90
62339;DHT22;48368;53.406;6.214;2023-06-22T09:30:43;24.10;99.90
62339;DHT22;48368;53.406;6.214;2023-06-22T09:33:10;24.00;99.90
62339;DHT22;48368;53.406;6.214;2023-06-22T09:35:37;24.00;99.90
62339;DHT22;48368;53.406;6.214;2023-06-22T09:38:03;24.10;99.90
62339;DHT22;48368;53.406;6.214;2023-06-22T09:40:29;24.20;99.90
62339;DHT22;48368;53.406;6.214;2023-06-22T09:42:55;24.20;99.90
62339;DHT22;48368;53.406;6.214;2023-06-22T09:45:21;24.00;99.90
62339;DHT22;48368;53.406;6.214;2023-06-22T09:47:46;23.80;99.90
62339;DHT22;48368;53.406;6.214;2023-06-22T09:50:12;23.70;99.90
62339;DHT22;48368;53.406;6.214;2023-06-22T09:52:37;23.90;99.90
62339;DHT22;48368;53.406;6.214;2023-06-22T09:55:03;24.10;99.90
62339;DHT22;48368;53.406;6.214;2023-06-22T09:57:29;23.90;99.90
62339;DHT22;48368;53.406;6.214;2023-06-22T09:59:55;24.20;99.90
62339;DHT22;48368;53.406;6.214;2023-06-22T10:02:21;24.30;99.90
62339;DHT22;48368;53.406;6.214;2023-06-22T10:04:48;24.40;99.90
62339;DHT22;48368;53.406;6.214;2023-06-22T10:07:13;24.10;99.90
62339;DHT22;48368;53.406;6.214;2023-06-22T10:09:39;23.90;99.90
62339;DHT22;48368;53.406;6.214;2023-06-22T10:12:05;24.00;99.90
62339;DHT22;48368;53.406;6.214;2023-06-22T10:14:31;24.10;99.90
62339;DHT22;48368;53.406;6.214;2023-06-22T10:16:56;24.30;99.90
62339;DHT22;48368;53.406;6.214;2023-06-22T10:19:22;24.20;99.90
62339;DHT22;48368;53.406;6.214;2023-06-22T10:21:48;24.50;99.90
62339;DHT22;48368;53.406;6.214;2023-06-22T10:24:13;24.50;99.90
62339;DHT22;48368;53.406;6.214;2023-06-22T10:26:39;24.60;99.90
62339;DHT22;48368;53.406;6.214;2023-06-22T10:29:04;24.70;99.90
62339;DHT22;48368;53.406;6.214;2023-06-22T10:31:30;24.80;99.90
62339;DHT22;48368;53.406;6.214;2023-06-22T10:33:57;24.90;99.90
62339;DHT22;48368;53.406;6.214;2023-06-22T10:36:23;24.60;99.90
62339;DHT22;48368;53.406;6.214;2023-06-22T10:38:49;24.40;99.90
62339;DHT22;48368;53.406;6.214;2023-06-22T10:41:15;24.80;99.90
62339;DHT22;48368;53.406;6.214;2023-06-22T10:43:42;24.50;99.90
62339;DHT22;48368;53.406;6.214;2023-06-22T10:46:07;24.60;99.90
62339;DHT22;48368;53.406;6.214;2023-06-22T10:48:33;25.00;99.90
62339;DHT22;48368;53.406;6.214;2023-06-22T10:50:59;24.90;99.90
62339;DHT22;48368;53.406;6.214;2023-06-22T10:53:25;25.10;99.90
62339;DHT22;48368;53.406;6.214;2023-06-22T10:55:50;25.00;99.90
62339;DHT22;48368;53.406;6.214;2023-06-22T10:58:18;25.00;99.90
62339;DHT22;48368;53.406;6.214;2023-06-22T11:00:44;25.20;99.90
62339;DHT22;48368;53.406;6.214;2023-06-22T11:03:10;24.60;99.90
62339;DHT22;48368;53.406;6.214;2023-06-22T11:05:35;24.80;99.90
62339;DHT22;48368;53.406;6.214;2023-06-22T11:08:01;24.80;99.90
62339;DHT22;48368;53.406;6.214;2023-06-22T11:10:26;24.90;99.90
62339;DHT22;48368;53.406;6.214;2023-06-22T11:12:52;24.90;99.90
62339;DHT22;48368;53.406;6.214;2023-06-22T11:15:18;24.80;99.90
62339;DHT22;48368;53.406;6.214;2023-06-22T11:17:44;24.70;99.90
62339;DHT22;48368;53.406;6.214;2023-06-22T11:20:10;24.60;99.90
62339;DHT22;48368;53.406;6.214;2023-06-22T11:22:45;24.70;99.90
62339;DHT22;48368;53.406;6.214;2023-06-22T11:25:11;24.70;99.90
62339;DHT22;48368;53.406;6.214;2023-06-22T11:27:37;25.10;99.90
62339;DHT22;48368;53.406;6.214;2023-06-22T11:30:03;25.50;99.90
62339;DHT22;48368;53.406;6.214;2023-06-22T11:32:29;25.60;99.90
62339;DHT22;48368;53.406;6.214;2023-06-22T11:34:56;25.70;99.90
62339;DHT22;48368;53.406;6.214;2023-06-22T11:37:22;25.30;99.90
62339;DHT22;48368;53.406;6.214;2023-06-22T11:39:48;24.50;99.90
62339;DHT22;48368;53.406;6.214;2023-06-22T11:42:13;24.70;99.90
62339;DHT22;48368;53.406;6.214;2023-06-22T11:44:39;25.00;99.90
62339;DHT22;48368;53.406;6.214;2023-06-22T11:47:05;24.90;99.90
62339;DHT22;48368;53.406;6.214;2023-06-22T11:49:31;24.50;99.90
62339;DHT22;48368;53.406;6.214;2023-06-22T11:51:57;24.40;99.90
62339;DHT22;48368;53.406;6.214;2023-06-22T11:54:22;24.50;99.90
62339;DHT22;48368;53.406;6.214;2023-06-22T11:56:48;24.60;99.90
62339;DHT22;48368;53.406;6.214;2023-06-22T11:59:13;24.90;99.90
62339;DHT22;48368;53.406;6.214;2023-06-22T12:01:39;24.90;99.90
62339;DHT22;48368;53.406;6.214;2023-06-22T12:04:05;24.50;99.90
62339;DHT22;48368;53.406;6.214;2023-06-22T12:06:37;24.80;99.90
62339;DHT22;48368;53.406;6.214;2023-06-22T12:09:03;24.60;99.90
62339;DHT22;48368;53.406;6.214;2023-06-22T12:11:30;24.90;99.90
62339;DHT22;48368;53.406;6.214;2023-06-22T12:13:55;24.20;99.90
62339;DHT22;48368;53.406;6.214;2023-06-22T12:16:21;24.20;99.90
62339;DHT22;48368;53.406;6.214;2023-06-22T12:18:47;24.20;99.90
62339;DHT22;48368;53.406;6.214;2023-06-22T12:21:13;24.00;99.90
62339;DHT22;48368;53.406;6.214;2023-06-22T12:23:38;23.60;99.90
62339;DHT22;48368;53.406;6.214;2023-06-22T12:26:04;23.60;99.90
62339;DHT22;48368;53.406;6.214;2023-06-22T12:28:29;23.80;99.90
62339;DHT22;48368;53.406;6.214;2023-06-22T12:30:55;23.80;99.90
62339;DHT22;48368;53.406;6.214;2023-06-22T12:33:21;23.90;99.90
62339;DHT22;48368;53.406;6.214;2023-06-22T12:35:46;23.70;99.90
62339;DHT22;48368;53.406;6.214;2023-06-22T12:38:15;23.40;99.90
62339;DHT22;48368;53.406;6.214;2023-06-22T12:40:43;23.40;99.90
62339;DHT22;48368;53.406;6.214;2023-06-22T12:43:08;23.70;99.90
62339;DHT22;48368;53.406;6.214;2023-06-22T12:45:34;23.70;99.90
62339;DHT22;48368;53.406;6.214;2023-06-22T12:48:00;24.00;99.90
62339;DHT22;48368;53.406;6.214;2023-06-22T12:50:26;23.80;99.90
62339;DHT22;48368;53.406;6.214;2023-06-22T12:52:52;23.80;99.90
62339;DHT22;48368;53.406;6.214;2023-06-22T12:55:17;23.50;99.90
62339;DHT22;48368;53.406;6.214;2023-06-22T12:57:43;23.20;99.90
62339;DHT22;48368;53.406;6.214;2023-06-22T13:00:09;23.40;99.90
62339;DHT22;48368;53.406;6.214;2023-06-22T13:02:36;23.50;99.90
62339;DHT22;48368;53.406;6.214;2023-06-22T13:05:02;23.20;99.90
62339;DHT22;48368;53.406;6.214;2023-06-22T13:07:30;23.30;99.90
62339;DHT22;48368;53.406;6.214;2023-06-22T13:09:56;23.30;99.90
62339;DHT22;48368;53.406;6.214;2023-06-22T13:12:21;23.30;99.90
62339;DHT22;48368;53.406;6.214;2023-06-22T13:14:47;23.40;99.90
62339;DHT22;48368;53.406;6.214;2023-06-22T13:17:13;23.40;99.90
62339;DHT22;48368;53.406;6.214;2023-06-22T13:19:39;23.50;99.90
62339;DHT22;48368;53.406;6.214;2023-06-22T13:22:09;23.30;99.90
62339;DHT22;48368;53.406;6.214;2023-06-22T13:24:50;23.00;99.90
62339;DHT22;48368;53.406;6.214;2023-06-22T13:27:16;23.00;99.90
62339;DHT22;48368;53.406;6.214;2023-06-22T13:29:41;23.10;99.90
62339;DHT22;48368;53.406;6.214;2023-06-22T13:32:07;22.90;99.90
62339;DHT22;48368;53.406;6.214;2023-06-22T13:34:33;22.70;99.90
62339;DHT22;48368;53.406;6.214;2023-06-22T13:36:59;22.50;99.90
62339;DHT22;48368;53.406;6.214;2023-06-22T13:39:24;22.40;99.90
62339;DHT22;48368;53.406;6.214;2023-06-22T13:41:50;22.20;99.90
62339;DHT22;48368;53.406;6.214;2023-06-22T13:44:16;22.60;99.90
62339;DHT22;48368;53.406;6.214;2023-06-22T13:46:42;22.30;99.90
62339;DHT22;48368;53.406;6.214;2023-06-22T13:49:07;22.40;99.90
62339;DHT22;48368;53.406;6.214;2023-06-22T13:51:33;22.10;99.90
62339;DHT22;48368;53.406;6.214;2023-06-22T13:53:59;22.00;99.90
62339;DHT22;48368;53.406;6.214;2023-06-22T13:56:24;22.00;99.90
62339;DHT22;48368;53.406;6.214;2023-06-22T13:58:53;21.90;99.90
62339;DHT22;48368;53.406;6.214;2023-06-22T14:01:18;22.00;99.90
62339;DHT22;48368;53.406;6.214;2023-06-22T14:03:44;22.10;99.90
62339;DHT22;48368;53.406;6.214;2023-06-22T14:06:12;22.00;99.90
62339;DHT22;48368;53.406;6.214;2023-06-22T14:08:37;22.00;99.90
62339;DHT22;48368;53.406;6.214;2023-06-22T14:11:03;21.90;99.90
62339;DHT22;48368;53.406;6.214;2023-06-22T14:13:29;21.80;99.90
62339;DHT22;48368;53.406;6.214;2023-06-22T14:15:55;21.40;99.90
62339;DHT22;48368;53.406;6.214;2023-06-22T14:18:20;21.50;99.90
62339;DHT22;48368;53.406;6.214;2023-06-22T14:20:48;21.40;99.90
62339;DHT22;48368;53.406;6.214;2023-06-22T14:23:14;21.60;99.90
62339;DHT22;48368;53.406;6.214;2023-06-22T14:25:40;21.50;99.90
62339;DHT22;48368;53.406;6.214;2023-06-22T14:28:05;21.50;99.90
62339;DHT22;48368;53.406;6.214;2023-06-22T14:30:31;21.30;99.90
62339;DHT22;48368;53.406;6.214;2023-06-22T14:32:57;21.40;99.90
62339;DHT22;48368;53.406;6.214;2023-06-22T14:35:23;21.20;99.90
62339;DHT22;48368;53.406;6.214;2023-06-22T14:37:50;21.40;99.90
62339;DHT22;48368;53.406;6.214;2023-06-22T14:40:15;21.40;99.90
62339;DHT22;48368;53.406;6.214;2023-06-22T14:42:41;21.30;99.90
62339;DHT22;48368;53.406;6.214;2023-06-22T14:45:07;21.40;99.90
62339;DHT22;48368;53.406;6.214;2023-06-22T14:47:33;21.40;99.90
62339;DHT22;48368;53.406;6.214;2023-06-22T14:49:58;21.20;99.90
62339;DHT22;48368;53.406;6.214;2023-06-22T14:52:26;21.30;99.90
62339;DHT22;48368;53.406;6.214;2023-06-22T14:54:52;21.30;99.90
62339;DHT22;48368;53.406;6.214;2023-06-22T14:57:18;21.20;99.90
62339;DHT22;48368;53.406;6.214;2023-06-22T14:59:51;21.40;99.90
62339;DHT22;48368;53.406;6.214;2023-06-22T15:02:17;21.50;99.90
62339;DHT22;48368;53.406;6.214;2023-06-22T15:04:43;21.20;99.90
62339;DHT22;48368;53.406;6.214;2023-06-22T15:07:08;21.20;99.90
62339;DHT22;48368;53.406;6.214;2023-06-22T15:09:34;21.30;99.90
62339;DHT22;48368;53.406;6.214;2023-06-22T15:12:00;21.20;99.90
62339;DHT22;48368;53.406;6.214;2023-06-22T15:14:27;21.10;99.90
62339;DHT22;48368;53.406;6.214;2023-06-22T15:16:53;21.00;99.90
62339;DHT22;48368;53.406;6.214;2023-06-22T15:19:19;21.10;99.90
62339;DHT22;48368;53.406;6.214;2023-06-22T15:21:44;21.10;99.90
62339;DHT22;48368;53.406;6.214;2023-06-22T15:24:11;21.10;99.90
62339;DHT22;48368;53.406;6.214;2023-06-22T15:26:37;21.00;99.90
62339;DHT22;48368;53.406;6.214;2023-06-22T15:29:03;20.90;99.90